Time;durP1;ratioP1;P1;durP2;ratioP2;P2;SDS_P1;SDS_P2;PMS_P1;PMS_P2;Temp;Humidity;BMP_temperature;BMP_pressure;BME280_temperature;BME280_humidity;BME280_pressure;Samples;Min_cycle;Max_cycle;Signal;HPM_P1;HPM_P2
2022/10/22 00:01:03;;;;;;;2.15;0.15;;;;;;;16.26;66.92;98823.47;5176666;28;20053;-71
2022/10/22 00:03:53;;;;;;;1.38;0.20;;;;;;;16.10;67.52;98829.00;5176140;28;20064;-71
2022/10/22 00:06:44;;;;;;;1.17;0.28;;;;;;;16.20;66.61;98832.22;5193307;28;20046;-71
2022/10/22 00:09:34;;;;;;;0.93;0.43;;;;;;;16.11;67.32;98838.66;5176098;28;20050;-71
2022/10/22 00:12:24;;;;;;;3.10;0.30;;;;;;;15.55;70.54;98835.47;5176654;28;20053;-71
2022/10/22 00:15:14;;;;;;;2.63;0.30;;;;;;;15.21;71.43;98829.53;5175449;28;20057;-71
2022/10/22 00:18:05;;;;;;;1.10;0.40;;;;;;;14.84;73.88;98824.09;5172837;28;20432;-72
2022/10/22 00:20:55;;;;;;;2.08;0.65;;;;;;;14.71;74.40;98806.00;5184322;28;20084;-72
2022/10/22 00:23:45;;;;;;;2.53;0.40;;;;;;;14.58;75.36;98814.56;5192652;28;20220;-72
2022/10/22 00:26:35;;;;;;;3.25;0.88;;;;;;;14.60;74.78;98817.03;5192023;28;20096;-72
2022/10/22 00:29:26;;;;;;;0.70;0.50;;;;;;;14.50;75.13;98799.44;5176333;28;20054;-72
2022/10/22 00:32:16;;;;;;;3.83;0.50;;;;;;;14.61;75.04;98808.88;5169707;28;20492;-72
2022/10/22 00:35:06;;;;;;;7.63;2.47;;;;;;;14.85;73.86;98805.22;5174768;28;20054;-72
2022/10/22 00:37:56;;;;;;;0.55;0.50;;;;;;;15.02;73.66;98835.34;5191029;28;20069;-71
2022/10/22 00:40:47;;;;;;;2.08;0.60;;;;;;;15.39;71.77;98825.72;5189853;28;20734;-72
2022/10/22 00:43:58;;;;;;;3.05;0.47;;;;;;;15.36;72.14;98842.94;5178287;28;20064;-72
2022/10/22 00:46:48;;;;;;;0.50;0.50;;;;;;;15.32;71.62;98822.13;5189398;28;20510;-72
2022/10/22 00:49:39;;;;;;;1.65;0.40;;;;;;;15.66;70.48;98843.03;5192706;28;20053;-72
2022/10/22 00:52:29;;;;;;;1.52;0.40;;;;;;;15.70;69.86;98823.03;5177817;28;20191;-72
2022/10/22 00:55:22;;;;;;;0.95;0.50;;;;;;;15.91;70.28;98849.06;5171145;28;20127;-72
2022/10/22 00:58:14;;;;;;;2.28;0.50;;;;;;;16.05;69.56;98831.38;5186904;28;20068;-72
2022/10/22 01:01:07;;;;;;;3.05;0.40;;;;;;;15.85;69.12;98829.22;5178060;28;20056;-72
2022/10/22 01:03:58;;;;;;;2.43;0.63;;;;;;;15.70;69.87;98810.47;5187279;28;20329;-72
2022/10/22 01:06:48;;;;;;;3.05;0.75;;;;;;;15.88;70.28;98815.47;5192924;28;20456;-72
2022/10/22 01:09:49;;;;;;;1.15;0.40;;;;;;;15.46;71.73;98794.63;5194990;28;20092;-73
2022/10/22 01:13:03;;;;;;;0.73;0.50;;;;;;;15.45;71.89;98811.66;5189953;28;20131;-72
2022/10/22 01:16:20;;;;;;;1.80;0.45;;;;;;;15.29;72.08;98780.56;5185790;28;20563;-72
2022/10/22 01:19:29;;;;;;;0.80;0.40;;;;;;;14.89;73.98;98773.69;5176690;28;20053;-72
2022/10/22 01:22:48;;;;;;;1.35;0.35;;;;;;;15.12;72.95;98787.03;5192308;28;20431;-72
2022/10/22 01:26:09;;;;;;;1.98;0.60;;;;;;;15.47;71.90;98797.13;5191526;28;20057;-71
2022/10/22 01:29:11;;;;;;;2.95;0.55;;;;;;;15.55;71.33;98788.19;5188727;28;20128;-72
2022/10/22 01:32:06;;;;;;;2.47;0.73;;;;;;;15.51;71.32;98789.56;5189164;28;20183;-72
2022/10/22 01:35:04;;;;;;;5.80;0.50;;;;;;;15.64;71.51;98816.50;5185806;28;20496;-72
2022/10/22 01:38:02;;;;;;;0.50;0.30;;;;;;;15.56;71.45;98792.53;5189599;28;20117;-72
2022/10/22 01:40:54;;;;;;;0.80;0.30;;;;;;;15.62;70.88;98828.38;5173459;28;20148;-72
2022/10/22 01:43:44;;;;;;;3.13;0.40;;;;;;;15.55;70.43;98836.28;5164519;28;20057;-72
2022/10/22 01:46:35;;;;;;;2.38;0.47;;;;;;;15.52;71.35;98829.47;5190143;28;20068;-72
2022/10/22 01:49:51;;;;;;;6.05;0.80;;;;;;;15.49;70.77;98827.16;5194027;28;20061;-71
2022/10/22 01:52:59;;;;;;;2.30;0.50;;;;;;;15.56;71.11;98843.28;5181423;28;20057;-72
2022/10/22 01:56:04;;;;;;;0.52;0.30;;;;;;;15.74;70.36;98851.03;5191888;28;20065;-72
2022/10/22 01:59:12;;;;;;;0.70;0.30;;;;;;;15.58;71.09;98860.00;5171627;28;20516;-72
2022/10/22 02:02:16;;;;;;;0.45;0.30;;;;;;;15.47;70.91;98863.91;5189447;28;20054;-71
2022/10/22 02:05:40;;;;;;;0.68;0.32;;;;;;;15.41;71.72;98864.63;5192776;28;20462;-72
2022/10/22 02:08:34;;;;;;;2.35;0.35;;;;;;;15.35;72.03;98869.84;5191695;28;20211;-72
2022/10/22 02:11:25;;;;;;;0.95;0.50;;;;;;;15.36;72.44;98860.81;5189790;28;20054;-72
2022/10/22 02:14:18;;;;;;;0.70;0.60;;;;;;;15.13;72.12;98845.63;5185506;28;20463;-72
2022/10/22 02:17:13;;;;;;;0.57;0.50;;;;;;;15.31;71.56;98890.75;5191689;28;20054;-72
2022/10/22 02:20:08;;;;;;;0.57;0.40;;;;;;;15.15;72.82;98880.16;5188338;28;20069;-72
2022/10/22 02:23:00;;;;;;;3.22;1.13;;;;;;;15.24;73.06;98890.63;5192531;28;20503;-72
2022/10/22 02:25:55;;;;;;;1.85;0.70;;;;;;;15.25;72.14;98875.41;5174250;28;20080;-73
2022/10/22 02:28:57;;;;;;;1.42;0.60;;;;;;;15.28;73.17;98864.38;5191067;28;20079;-72
2022/10/22 02:31:50;;;;;;;17.40;8.73;;;;;;;15.34;72.50;98868.19;5192336;28;20564;-72
2022/10/22 02:34:40;;;;;;;5.13;1.77;;;;;;;15.06;72.12;98843.81;5193159;28;20057;-72
2022/10/22 02:37:31;;;;;;;6.35;2.70;;;;;;;15.14;72.57;98857.97;5190747;28;20733;-72
2022/10/22 02:40:22;;;;;;;1.92;0.88;;;;;;;15.18;72.62;98859.28;5194606;28;20099;-72
2022/10/22 02:43:13;;;;;;;3.28;0.52;;;;;;;15.20;72.60;98872.47;5190549;28;20061;-72
2022/10/22 02:46:03;;;;;;;0.70;0.50;;;;;;;15.12;72.21;98859.97;5187700;28;20516;-72
2022/10/22 02:48:53;;;;;;;0.68;0.60;;;;;;;15.21;71.85;98864.25;5187363;28;20057;-72
2022/10/22 02:51:43;;;;;;;1.40;0.60;;;;;;;15.47;70.55;98858.56;5194092;28;20357;-72
2022/10/22 02:54:33;;;;;;;6.95;1.50;;;;;;;15.49;69.93;98853.88;5188964;28;20554;-72
2022/10/22 02:57:23;;;;;;;1.92;0.82;;;;;;;15.08;71.52;98849.81;5193409;28;20048;-72
2022/10/22 03:00:13;;;;;;;4.57;0.80;;;;;;;15.09;71.60;98848.81;5192482;28;20064;-72
2022/10/22 03:03:03;;;;;;;5.05;0.65;;;;;;;15.20;71.30;98861.78;5191182;28;20056;-72
2022/10/22 03:05:53;;;;;;;1.90;0.70;;;;;;;14.80;73.12;98858.31;5189205;28;20139;-72
2022/10/22 03:08:44;;;;;;;3.08;1.33;;;;;;;14.67;74.28;98853.53;5174209;28;20191;-72
2022/10/22 03:11:34;;;;;;;7.18;1.85;;;;;;;14.42;75.55;98844.75;5194262;28;20097;-72
2022/10/22 03:14:24;;;;;;;1.10;0.43;;;;;;;14.54;75.19;98848.75;5189788;28;20056;-72
2022/10/22 03:17:14;;;;;;;4.43;0.68;;;;;;;14.42;74.91;98836.75;5188472;28;20111;-72
2022/10/22 03:20:04;;;;;;;0.85;0.40;;;;;;;15.00;73.41;98862.22;5169777;28;20176;-72
2022/10/22 03:22:56;;;;;;;0.65;0.50;;;;;;;14.88;73.60;98860.94;5176305;28;20526;-72
2022/10/22 03:25:47;;;;;;;1.33;0.50;;;;;;;14.92;73.83;98851.56;5177656;28;20076;-72
2022/10/22 03:28:39;;;;;;;0.88;0.60;;;;;;;14.75;74.47;98833.97;5173873;28;20060;-72
2022/10/22 03:31:29;;;;;;;0.88;0.50;;;;;;;14.41;75.75;98807.59;5189191;28;20690;-72
2022/10/22 03:34:20;;;;;;;2.17;0.60;;;;;;;14.67;75.44;98808.19;5195992;28;20138;-72
2022/10/22 03:37:10;;;;;;;2.22;0.68;;;;;;;15.15;72.92;98827.56;5187828;28;20046;-72
2022/10/22 03:40:02;;;;;;;2.85;0.55;;;;;;;15.43;72.12;98833.22;5174297;28;20050;-72
2022/10/22 03:42:52;;;;;;;1.58;0.70;;;;;;;15.44;71.17;98834.88;5162782;28;20143;-72
2022/10/22 03:45:42;;;;;;;1.70;0.70;;;;;;;15.67;70.68;98824.22;5189532;28;20096;-72
2022/10/22 03:48:32;;;;;;;2.70;0.60;;;;;;;15.21;72.54;98828.72;5193354;28;20045;-72
2022/10/22 03:51:24;;;;;;;1.98;0.63;;;;;;;14.95;73.06;98811.19;5193550;28;20504;-72
2022/10/22 03:54:15;;;;;;;0.85;0.45;;;;;;;14.86;73.59;98798.88;5175366;28;20072;-72
2022/10/22 03:57:06;;;;;;;5.43;0.80;;;;;;;15.09;72.92;98820.25;5193636;28;20138;-72
2022/10/22 03:59:56;;;;;;;2.38;0.40;;;;;;;15.51;71.76;98825.13;5196937;28;20530;-72
2022/10/22 04:02:46;;;;;;;0.57;0.43;;;;;;;15.38;71.77;98824.09;5191772;28;20060;-72
2022/10/22 04:05:35;;;;;;;2.33;0.80;;;;;;;15.49;71.38;98835.16;5194176;28;20049;-73
2022/10/22 04:08:25;;;;;;;3.33;0.70;;;;;;;15.44;71.34;98848.25;5189892;28;20046;-72
2022/10/22 04:11:16;;;;;;;1.20;0.52;;;;;;;15.38;71.94;98856.13;5193959;28;20057;-72
2022/10/22 04:14:06;;;;;;;2.05;0.80;;;;;;;15.34;70.74;98842.31;5180035;28;20049;-72
2022/10/22 04:16:56;;;;;;;1.48;0.60;;;;;;;15.37;71.45;98866.00;5188591;28;20046;-72
2022/10/22 04:19:46;;;;;;;3.10;0.77;;;;;;;15.50;71.43;98850.22;5195165;28;20057;-72
2022/10/22 04:22:36;;;;;;;1.48;0.60;;;;;;;15.25;72.46;98848.72;5189084;28;20510;-72
2022/10/22 04:25:27;;;;;;;2.40;0.77;;;;;;;15.40;71.62;98878.19;5186873;28;20052;-72
2022/10/22 04:28:16;;;;;;;3.80;0.70;;;;;;;15.44;71.22;98868.78;5178639;28;20057;-72
2022/10/22 04:31:11;;;;;;;3.08;0.60;;;;;;;15.49;70.94;98875.25;5186841;28;20056;-72
2022/10/22 04:34:01;;;;;;;1.55;0.47;;;;;;;15.56;70.33;98874.53;5174557;28;20076;-72
2022/10/22 04:36:51;;;;;;;1.02;0.50;;;;;;;15.36;70.68;98852.81;5175557;28;20049;-72
2022/10/22 04:39:41;;;;;;;1.15;0.80;;;;;;;15.18;71.54;98869.13;5193250;28;20151;-72
2022/10/22 04:42:31;;;;;;;1.38;0.45;;;;;;;15.11;71.52;98870.84;5184724;28;20518;-72
2022/10/22 04:45:21;;;;;;;1.65;0.60;;;;;;;15.04;71.87;98863.53;5193958;28;20048;-72
2022/10/22 04:48:11;;;;;;;0.77;0.40;;;;;;;14.92;71.87;98851.56;5190806;28;20527;-72
2022/10/22 04:51:02;;;;;;;0.50;0.40;;;;;;;15.04;71.19;98865.38;5189731;28;20050;-72
2022/10/22 04:53:53;;;;;;;0.95;0.40;;;;;;;14.91;72.01;98851.75;5179770;28;20152;-72
2022/10/22 04:56:43;;;;;;;0.63;0.60;;;;;;;15.07;70.91;98861.53;5180499;28;20433;-72
2022/10/22 04:59:33;;;;;;;1.25;0.68;;;;;;;15.12;72.18;98873.31;5185997;28;20076;-72
2022/10/22 05:02:23;;;;;;;2.47;0.80;;;;;;;15.20;71.25;98864.44;5169914;28;20191;-72
2022/10/22 05:05:13;;;;;;;5.40;0.80;;;;;;;15.07;71.91;98862.34;5170255;28;20060;-74
2022/10/22 05:08:03;;;;;;;3.47;0.70;;;;;;;15.00;71.24;98880.91;5187422;28;20056;-73
2022/10/22 05:10:53;;;;;;;1.08;0.45;;;;;;;14.96;71.97;98892.94;5183941;28;20455;-74
2022/10/22 05:13:43;;;;;;;2.17;0.50;;;;;;;15.09;71.37;98896.88;5188430;28;20053;-74
2022/10/22 05:16:34;;;;;;;6.25;0.60;;;;;;;15.04;71.31;98900.91;5176976;28;20109;-74
2022/10/22 05:19:28;;;;;;;1.27;0.60;;;;;;;15.13;71.31;98924.88;5172265;28;20508;-74
2022/10/22 05:22:18;;;;;;;2.90;0.77;;;;;;;15.15;71.17;98928.22;5190688;28;20045;-73
2022/10/22 05:25:08;;;;;;;1.38;1.23;;;;;;;14.85;72.01;98932.53;5169464;28;20061;-73
2022/10/22 05:27:58;;;;;;;1.77;0.90;;;;;;;15.04;71.53;98932.13;5188091;28;20127;-73
2022/10/22 05:30:58;;;;;;;4.57;0.80;;;;;;;15.01;71.38;98943.97;5171180;28;20460;-74
2022/10/22 05:33:48;;;;;;;4.70;1.20;;;;;;;14.94;71.40;98959.03;5180669;28;20142;-74
2022/10/22 05:36:38;;;;;;;1.88;0.75;;;;;;;14.82;71.73;98949.72;5175599;28;20056;-75
2022/10/22 05:39:28;;;;;;;1.95;0.90;;;;;;;14.75;71.19;98948.75;5179549;28;20062;-72
2022/10/22 05:42:18;;;;;;;2.90;2.08;;;;;;;14.60;71.05;98937.94;5185467;28;20060;-72
2022/10/22 05:45:08;;;;;;;1.85;0.90;;;;;;;14.57;71.65;98952.47;5187824;28;20195;-72
2022/10/22 05:47:59;;;;;;;2.35;0.68;;;;;;;14.54;71.30;98963.47;5186605;28;20057;-73
2022/10/22 05:50:49;;;;;;;2.85;0.60;;;;;;;14.36;71.67;98962.81;5187724;28;20053;-74
2022/10/22 05:53:41;;;;;;;3.75;0.73;;;;;;;14.29;71.83;98964.47;5178855;28;20042;-74
2022/10/22 05:56:31;;;;;;;2.28;0.80;;;;;;;14.33;71.65;98979.97;5170390;28;20519;-73
2022/10/22 05:59:21;;;;;;;1.00;0.90;;;;;;;14.22;72.21;98975.00;5179598;28;20056;-71
2022/10/22 06:02:11;;;;;;;2.90;0.60;;;;;;;14.25;72.18;98985.31;5180181;28;20105;-72
2022/10/22 06:05:02;;;;;;;1.60;0.60;;;;;;;14.24;72.50;98988.16;5186616;28;20056;-69
2022/10/22 06:07:53;;;;;;;3.47;0.50;;;;;;;14.20;72.16;98992.16;5185876;28;20049;-70
2022/10/22 06:10:43;;;;;;;1.23;0.68;;;;;;;14.26;72.08;98999.47;5177084;28;20061;-72
2022/10/22 06:13:33;;;;;;;1.67;0.43;;;;;;;14.19;72.14;99011.81;5177745;28;20050;-71
2022/10/22 06:16:23;;;;;;;2.95;1.00;;;;;;;14.09;72.89;99012.81;5175220;28;20191;-72
2022/10/22 06:19:15;;;;;;;2.72;0.63;;;;;;;14.29;72.84;99015.16;5179922;28;20053;-72
2022/10/22 06:22:05;;;;;;;1.20;0.60;;;;;;;14.28;72.81;99026.84;5181165;28;20112;-73
2022/10/22 06:24:55;;;;;;;4.13;0.90;;;;;;;14.20;73.22;99002.81;5153628;28;20127;-72
2022/10/22 06:27:49;;;;;;;1.85;0.90;;;;;;;14.39;72.98;99028.31;5190019;28;20550;-72
2022/10/22 06:30:40;;;;;;;1.52;0.80;;;;;;;14.31;73.41;99018.50;5188476;28;20053;-73
2022/10/22 06:33:40;;;;;;;3.58;0.88;;;;;;;14.54;73.59;99040.84;5193861;28;20126;-72
2022/10/22 06:36:31;;;;;;;3.30;0.93;;;;;;;14.80;73.29;99047.81;5178848;28;20050;-72
2022/10/22 06:39:25;;;;;;;3.05;0.80;;;;;;;14.83;73.15;99057.31;5183228;28;20440;-71
2022/10/22 06:42:15;;;;;;;1.17;0.88;;;;;;;14.96;71.86;99061.13;5179183;28;20596;-73
2022/10/22 06:45:10;;;;;;;6.38;1.10;;;;;;;14.95;72.46;99054.13;5161980;28;20133;-73
2022/10/22 06:47:59;;;;;;;4.63;0.90;;;;;;;15.02;71.68;99060.44;5166026;28;20053;-73
2022/10/22 06:50:49;;;;;;;4.22;1.10;;;;;;;15.01;72.54;99057.97;5183260;28;20425;-72
2022/10/22 06:53:40;;;;;;;4.07;1.00;;;;;;;15.23;72.24;99072.41;5190426;28;20059;-72
2022/10/22 06:56:30;;;;;;;4.00;0.98;;;;;;;15.26;72.01;99067.59;5193316;28;20159;-72
2022/10/22 06:59:20;;;;;;;4.15;1.00;;;;;;;15.29;71.79;99061.03;5191553;28;20095;-72
2022/10/22 07:02:10;;;;;;;1.30;1.00;;;;;;;15.46;71.27;99078.69;5194324;28;20827;-73
2022/10/22 07:05:00;;;;;;;2.38;1.02;;;;;;;15.32;71.55;99079.41;5188200;28;20119;-72
2022/10/22 07:07:50;;;;;;;7.60;1.00;;;;;;;15.27;71.71;99085.28;5183533;28;20611;-70
2022/10/22 07:10:40;;;;;;;5.65;1.00;;;;;;;15.54;71.62;99087.69;5191189;28;20069;-72
2022/10/22 07:13:30;;;;;;;8.02;1.10;;;;;;;15.57;71.21;99087.34;5178584;28;20509;-73
2022/10/22 07:16:20;;;;;;;2.47;1.00;;;;;;;15.69;71.68;99104.66;5188830;28;20060;-73
2022/10/22 07:19:11;;;;;;;4.57;0.90;;;;;;;15.73;71.30;99074.75;5189011;28;20090;-72
2022/10/22 07:22:01;;;;;;;2.08;0.98;;;;;;;16.01;70.60;99111.72;5182597;28;20126;-72
2022/10/22 07:24:52;;;;;;;1.45;0.70;;;;;;;16.07;70.42;99104.84;5180940;28;20139;-72
2022/10/22 07:27:41;;;;;;;1.23;0.60;;;;;;;16.33;70.02;99123.22;5193809;28;20044;-71
2022/10/22 07:30:33;;;;;;;1.48;0.60;;;;;;;16.43;69.13;99118.47;5187193;28;20050;-72
2022/10/22 07:33:23;;;;;;;4.07;2.30;;;;;;;16.03;70.77;99117.72;5192602;28;20644;-72
2022/10/22 07:36:18;;;;;;;1.58;0.90;;;;;;;16.31;69.64;99117.22;5192972;28;20053;-72
2022/10/22 07:39:08;;;;;;;3.22;1.00;;;;;;;16.29;69.60;99119.22;5171456;28;20049;-72
2022/10/22 07:41:58;;;;;;;1.30;0.75;;;;;;;16.33;69.79;99124.06;5185561;28;20053;-72
2022/10/22 07:44:48;;;;;;;1.80;0.80;;;;;;;16.58;67.95;99121.19;5192626;28;20061;-72
2022/10/22 07:47:38;;;;;;;3.40;0.90;;;;;;;16.17;69.65;99122.31;5191220;28;20064;-72
2022/10/22 07:50:29;;;;;;;2.92;0.98;;;;;;;16.34;68.22;99108.84;5182250;28;20049;-71
2022/10/22 07:53:20;;;;;;;2.70;1.60;;;;;;;16.20;69.38;99110.44;5191337;28;20049;-71
2022/10/22 07:56:10;;;;;;;5.03;1.40;;;;;;;16.20;69.45;99110.44;5191170;28;20054;-72
2022/10/22 07:59:00;;;;;;;3.50;1.40;;;;;;;16.56;67.57;99133.94;5185769;28;20053;-72
2022/10/22 08:01:51;;;;;;;4.95;1.70;;;;;;;16.90;66.49;99120.97;5174672;28;20115;-71
2022/10/22 08:04:42;;;;;;;6.15;1.40;;;;;;;17.21;67.68;99121.84;5194475;28;20061;-72
2022/10/22 08:07:31;;;;;;;5.05;1.63;;;;;;;18.42;63.92;99125.88;5187751;28;20143;-71
2022/10/22 08:10:22;;;;;;;4.35;0.80;;;;;;;18.95;61.83;99134.44;5178645;28;20514;-72
2022/10/22 08:13:13;;;;;;;6.80;0.93;;;;;;;19.78;60.80;99139.97;5178563;28;20049;-72
2022/10/22 08:16:05;;;;;;;2.58;0.82;;;;;;;19.47;60.35;99144.75;5182541;28;20186;-71
2022/10/22 08:18:55;;;;;;;2.97;1.10;;;;;;;19.69;61.80;99136.63;5185496;28;20400;-71
2022/10/22 08:21:45;;;;;;;4.07;0.90;;;;;;;19.84;59.42;99141.88;5191521;28;20111;-71
2022/10/22 08:24:35;;;;;;;4.10;0.73;;;;;;;19.53;59.77;99124.28;5171642;28;20057;-71
2022/10/22 08:27:25;;;;;;;1.30;0.68;;;;;;;19.25;59.30;99113.56;5191924;28;20045;-71
2022/10/22 08:30:16;;;;;;;4.75;0.98;;;;;;;20.64;57.37;99133.03;5188673;28;20055;-71
2022/10/22 08:33:06;;;;;;;5.38;0.93;;;;;;;21.36;55.97;99133.25;5189252;28;20144;-71
2022/10/22 08:35:57;;;;;;;4.00;1.00;;;;;;;21.42;55.60;99132.38;5188990;28;20135;-72
2022/10/22 08:38:47;;;;;;;1.15;0.55;;;;;;;21.14;55.64;99145.28;5183028;28;20108;-72
2022/10/22 08:41:52;;;;;;;3.20;0.75;;;;;;;21.44;53.18;99146.50;5191533;28;20063;-72
2022/10/22 08:45:04;;;;;;;6.88;2.45;;;;;;;21.38;53.31;99139.25;5185780;28;20076;-72
2022/10/22 08:48:12;;;;;;;2.03;0.70;;;;;;;21.92;53.49;99138.06;5189903;28;20049;-72
2022/10/22 08:51:03;;;;;;;1.88;0.60;;;;;;;22.61;51.47;99130.25;5189793;28;20518;-72
2022/10/22 08:54:16;;;;;;;3.90;0.82;;;;;;;22.92;53.45;99138.34;5188789;28;20522;-71
2022/10/22 08:57:25;;;;;;;0.93;0.60;;;;;;;23.78;50.11;99149.44;5187805;28;20074;-72
2022/10/22 09:00:45;;;;;;;1.65;0.50;;;;;;;23.30;49.59;99139.28;5184355;28;20045;-71
2022/10/22 09:03:56;;;;;;;1.63;0.70;;;;;;;23.70;50.90;99147.03;5186316;28;20061;-72
2022/10/22 09:06:48;;;;;;;1.30;0.60;;;;;;;24.42;48.74;99142.59;5189362;28;20053;-72
2022/10/22 09:09:49;;;;;;;1.08;0.60;;;;;;;23.76;47.52;99138.81;5189734;28;20053;-73
2022/10/22 09:12:39;;;;;;;3.33;0.93;;;;;;;23.91;48.10;99142.00;5187977;28;20657;-71
2022/10/22 09:15:30;;;;;;;2.70;0.55;;;;;;;24.21;49.89;99146.63;5187742;28;20491;-71
2022/10/22 09:18:38;;;;;;;2.50;0.90;;;;;;;24.10;47.84;99142.78;5176785;28;20136;-72
2022/10/22 09:21:37;;;;;;;1.83;0.60;;;;;;;24.39;49.24;99146.56;5186500;28;20052;-72
2022/10/22 09:24:40;;;;;;;1.55;0.50;;;;;;;24.65;48.57;99141.03;5187455;28;20050;-71
2022/10/22 09:27:30;;;;;;;1.73;0.63;;;;;;;25.09;49.83;99132.38;5179001;28;20076;-72
2022/10/22 09:30:23;;;;;;;2.95;0.55;;;;;;;25.18;48.12;99135.59;5190581;28;20052;-72
2022/10/22 09:33:15;;;;;;;1.88;0.55;;;;;;;25.36;46.47;99142.78;5191292;28;20068;-72
2022/10/22 09:36:06;;;;;;;0.63;0.60;;;;;;;25.64;47.30;99149.41;5176473;28;20124;-72
2022/10/22 09:38:56;;;;;;;4.15;0.93;;;;;;;25.49;47.46;99153.41;5185639;28;20075;-72
2022/10/22 09:41:46;;;;;;;5.65;1.10;;;;;;;26.00;46.05;99148.28;5190684;28;20060;-72
2022/10/22 09:44:37;;;;;;;1.88;0.60;;;;;;;26.08;43.43;99164.22;5191251;28;20042;-71
2022/10/22 09:47:37;;;;;;;3.60;0.70;;;;;;;25.48;45.85;99168.06;5172895;28;20048;-72
2022/10/22 09:50:54;;;;;;;0.73;0.60;;;;;;;24.10;48.93;99178.00;5176841;28;20076;-73
2022/10/22 09:54:00;;;;;;;0.70;0.43;;;;;;;24.68;46.94;99159.56;5177799;28;20187;-72
2022/10/22 09:56:57;;;;;;;1.40;0.70;;;;;;;25.77;44.83;99182.56;5186058;28;20054;-72
2022/10/22 09:59:49;;;;;;;2.65;0.40;;;;;;;25.68;45.26;99183.97;5190606;28;20683;-72
2022/10/22 10:02:43;;;;;;;3.17;0.30;;;;;;;25.55;44.38;99182.31;5189725;28;20111;-73
2022/10/22 10:05:34;;;;;;;3.40;0.47;;;;;;;24.73;45.10;99186.78;5194543;28;20175;-72
2022/10/22 10:08:24;;;;;;;1.30;0.30;;;;;;;24.52;47.25;99182.72;5191683;28;20052;-71
2022/10/22 10:11:28;;;;;;;1.17;0.32;;;;;;;25.28;44.80;99192.81;5192700;28;20057;-72
2022/10/22 10:14:34;;;;;;;3.10;0.50;;;;;;;25.19;45.33;99194.22;5195860;28;20052;-71
2022/10/22 10:17:42;;;;;;;1.10;0.40;;;;;;;23.27;47.52;99191.94;5192118;28;20089;-72
2022/10/22 10:20:53;;;;;;;0.68;0.30;;;;;;;23.93;48.58;99201.31;5190935;28;20061;-72
2022/10/22 10:24:01;;;;;;;1.90;0.60;;;;;;;23.70;47.78;99209.28;5177853;28;20124;-73
2022/10/22 10:27:04;;;;;;;3.65;0.47;;;;;;;23.52;49.80;99212.78;5186865;28;20115;-72
2022/10/22 10:30:00;;;;;;;1.20;0.57;;;;;;;22.70;51.47;99216.25;5195122;28;20567;-73
2022/10/22 10:33:09;;;;;;;2.35;0.40;;;;;;;22.47;51.55;99214.09;5191273;28;20061;-73
2022/10/22 10:36:08;;;;;;;0.82;0.50;;;;;;;22.53;50.97;99215.09;5197112;28;20744;-72
2022/10/22 10:39:16;;;;;;;3.92;0.60;;;;;;;22.40;51.15;99217.88;5190398;28;20061;-72
2022/10/22 10:42:19;;;;;;;0.47;0.40;;;;;;;21.95;52.62;99217.78;5169159;28;20103;-72
2022/10/22 10:45:47;;;;;;;1.73;0.45;;;;;;;21.35;52.42;99224.09;5186867;28;20084;-72
2022/10/22 10:49:07;;;;;;;3.65;0.32;;;;;;;21.11;55.74;99208.53;5178594;28;20056;-72
2022/10/22 10:52:25;;;;;;;1.08;0.45;;;;;;;21.66;53.34;99224.53;5186283;28;20129;-72
2022/10/22 10:55:27;;;;;;;2.45;0.47;;;;;;;21.17;56.08;99225.75;5194073;28;20052;-72
2022/10/22 10:58:29;;;;;;;2.15;0.70;;;;;;;21.73;54.64;99226.16;5171046;28;20546;-71
2022/10/22 11:01:43;;;;;;;1.23;0.30;;;;;;;22.00;55.59;99210.72;5191977;28;20049;-72
2022/10/22 11:04:51;;;;;;;2.67;0.40;;;;;;;22.27;51.79;99216.06;5194076;28;20046;-73
2022/10/22 11:07:47;;;;;;;3.30;0.63;;;;;;;22.12;53.45;99213.59;5194362;28;20111;-73
2022/10/22 11:10:53;;;;;;;2.38;0.70;;;;;;;22.16;53.08;99201.34;5189870;28;20529;-74
2022/10/22 11:13:52;;;;;;;2.38;0.73;;;;;;;21.22;53.38;99207.88;5181306;28;20459;-72
2022/10/22 11:17:06;;;;;;;2.45;0.70;;;;;;;21.65;55.00;99222.84;5194725;28;20064;-75
2022/10/22 11:20:21;;;;;;;4.82;0.90;;;;;;;21.18;52.66;99213.91;5181705;28;20132;-75
2022/10/22 11:23:26;;;;;;;1.75;0.80;;;;;;;21.29;52.12;99208.75;5194269;28;20097;-74
2022/10/22 11:26:28;;;;;;;2.95;0.90;;;;;;;21.64;52.91;99194.22;5176136;28;20133;-72
2022/10/22 11:29:27;;;;;;;4.20;0.80;;;;;;;21.87;51.57;99201.84;5188548;28;20112;-74
2022/10/22 11:32:25;;;;;;;2.70;1.20;;;;;;;22.03;52.63;99204.06;5194541;28;20056;-75
2022/10/22 11:35:19;;;;;;;1.67;0.50;;;;;;;21.72;51.64;99207.47;5192644;28;20287;-75
2022/10/22 11:38:19;;;;;;;2.80;0.60;;;;;;;21.48;53.14;99204.38;5179134;28;20373;-73
2022/10/22 11:41:16;;;;;;;12.27;0.88;;;;;;;21.45;52.77;99199.41;5169308;28;20046;-74
2022/10/22 11:44:19;;;;;;;3.13;0.82;;;;;;;21.51;50.46;99197.75;5177187;28;20051;-73
2022/10/22 11:47:23;;;;;;;6.43;0.95;;;;;;;21.18;52.92;99195.88;5194310;28;20054;-74
2022/10/22 11:50:21;;;;;;;2.05;0.70;;;;;;;21.45;51.64;99201.28;5178678;28;20115;-73
2022/10/22 11:53:11;;;;;;;2.45;0.65;;;;;;;21.46;51.63;99193.00;5192627;28;20091;-74
2022/10/22 11:56:19;;;;;;;4.88;0.70;;;;;;;21.89;52.05;99194.38;5192711;28;20447;-73
2022/10/22 11:59:36;;;;;;;6.35;0.88;;;;;;;21.00;50.87;99185.72;5189022;28;20522;-74
2022/10/22 12:02:26;;;;;;;2.08;0.63;;;;;;;21.74;50.98;99191.91;5177029;28;20164;-73
2022/10/22 12:05:22;;;;;;;2.03;0.60;;;;;;;21.74;50.17;99194.59;5181388;28;20172;-75
2022/10/22 12:08:19;;;;;;;1.85;0.80;;;;;;;21.77;51.28;99195.00;5176535;28;20069;-75
2022/10/22 12:11:09;;;;;;;4.45;1.17;;;;;;;21.45;49.79;99202.09;5170664;28;20053;-73
2022/10/22 12:14:25;;;;;;;1.27;0.35;;;;;;;21.99;52.15;99194.75;5187100;28;20439;-71
2022/10/22 12:17:17;;;;;;;1.23;0.60;;;;;;;21.95;51.53;99180.00;5196721;28;20048;-71
2022/10/22 12:20:12;;;;;;;1.23;0.60;;;;;;;22.07;51.35;99188.28;5185323;28;20512;-70
2022/10/22 12:23:04;;;;;;;1.63;0.50;;;;;;;22.02;50.88;99187.06;5190146;28;20143;-73
2022/10/22 12:25:54;;;;;;;2.13;0.50;;;;;;;22.15;52.18;99178.09;5191494;28;20412;-71
2022/10/22 12:28:44;;;;;;;1.30;0.65;;;;;;;21.92;49.25;99175.88;5187167;28;20441;-71
2022/10/22 12:31:36;;;;;;;5.65;0.90;;;;;;;21.86;50.76;99160.53;5193676;28;20079;-72
2022/10/22 12:34:28;;;;;;;3.58;0.80;;;;;;;22.01;49.49;99179.97;5173309;28;20060;-72
2022/10/22 12:37:19;;;;;;;1.05;0.60;;;;;;;21.78;49.98;99179.63;5173745;28;20061;-72
2022/10/22 12:40:32;;;;;;;4.15;0.82;;;;;;;21.80;49.95;99169.47;5189685;28;20589;-72
2022/10/22 12:43:27;;;;;;;3.53;0.63;;;;;;;21.71;49.41;99171.56;5190605;28;20514;-72
2022/10/22 12:46:18;;;;;;;3.00;0.82;;;;;;;21.59;49.54;99165.16;5190993;28;20093;-73
2022/10/22 12:49:21;;;;;;;1.55;0.57;;;;;;;21.18;47.55;99152.72;5175945;28;20057;-74
2022/10/22 12:52:16;;;;;;;2.70;0.70;;;;;;;21.57;49.30;99165.38;5174333;28;20056;-74
2022/10/22 12:55:09;;;;;;;2.78;0.63;;;;;;;21.54;48.24;99163.09;5175128;28;20136;-74
2022/10/22 12:58:03;;;;;;;2.50;0.57;;;;;;;21.60;49.17;99164.13;5187355;28;20128;-74
2022/10/22 13:01:00;;;;;;;2.78;0.50;;;;;;;21.54;48.89;99155.00;5181999;28;20131;-71
2022/10/22 13:04:04;;;;;;;3.80;0.60;;;;;;;21.76;49.00;99160.97;5170018;28;20055;-73
2022/10/22 13:07:13;;;;;;;5.13;0.85;;;;;;;21.74;49.99;99159.50;5174593;28;20080;-72
2022/10/22 13:10:35;;;;;;;1.05;0.45;;;;;;;21.78;48.97;99155.34;5187376;28;20424;-73
2022/10/22 13:13:37;;;;;;;4.25;0.80;;;;;;;21.94;47.44;99167.53;5181196;28;20148;-74
2022/10/22 13:16:28;;;;;;;3.05;0.60;;;;;;;21.79;50.04;99167.81;5188419;28;20056;-73
2022/10/22 13:19:43;;;;;;;2.67;0.98;;;;;;;21.60;50.97;99160.59;5174926;28;20663;-72
2022/10/22 13:22:36;;;;;;;1.20;0.43;;;;;;;21.67;51.96;99166.81;5191346;28;20451;-74
2022/10/22 13:25:32;;;;;;;2.38;0.43;;;;;;;21.82;49.81;99159.28;5189126;28;20149;-74
2022/10/22 13:28:23;;;;;;;2.17;0.60;;;;;;;21.60;51.25;99144.41;5172410;28;20160;-75
2022/10/22 13:31:17;;;;;;;3.92;0.70;;;;;;;21.74;49.64;99154.94;5178118;28;20175;-74
2022/10/22 13:34:16;;;;;;;4.28;0.77;;;;;;;21.70;50.27;99160.97;5187500;28;20049;-73
2022/10/22 13:37:08;;;;;;;2.47;0.85;;;;;;;21.65;51.07;99152.69;5191280;28;20049;-76
2022/10/22 13:39:58;;;;;;;4.88;0.68;;;;;;;21.51;50.24;99147.31;5188792;28;20053;-75
2022/10/22 13:42:48;;;;;;;1.08;0.55;;;;;;;21.28;49.26;99153.13;5196087;28;20495;-75
2022/10/22 13:45:39;;;;;;;2.22;0.77;;;;;;;21.30;50.10;99151.06;5196631;28;20487;-74